Time;durP1;ratioP1;P1;durP2;ratioP2;P2;SDS_P1;SDS_P2;PMS_P1;PMS_P2;Temp;Humidity;BMP_temperature;BMP_pressure;BME280_temperature;BME280_humidity;BME280_pressure;Samples;Min_cycle;Max_cycle;Signal;HPM_P1;HPM_P2
2021/05/06 00:06:03;;;;;;;;;;;8.50;68.80;;;;;;4275492;33;19994;-70
2021/05/06 00:08:20;;;;;;;;;;;8.60;69.00;;;;;;4288287;33;20015;-70
2021/05/06 00:32:35;;;;;;;;;;;8.50;69.10;;;;;;4288114;33;20310;-70
2021/05/06 00:35:02;;;;;;;;;;;8.50;69.20;;;;;;4287541;33;19999;-70
2021/05/06 00:37:30;;;;;;;;;;;8.50;69.30;;;;;;4287914;33;20024;-70
2021/05/06 00:40:02;;;;;;;;;;;8.50;69.50;;;;;;4287962;33;20506;-70
2021/05/06 00:46:04;;;;;;;;;;;8.50;69.60;;;;;;4287528;33;20018;-70
2021/05/06 00:59:30;;;;;;;;;;;8.30;70.40;;;;;;4287973;33;20069;-70
2021/05/06 01:07:17;;;;;;;;;;;8.30;71.10;;;;;;4287853;33;20017;-69
2021/05/06 01:09:36;;;;;;;;;;;8.20;71.20;;;;;;4288529;33;20848;-70
2021/05/06 01:12:06;;;;;;;;;;;8.20;71.40;;;;;;4277827;33;20362;-70
2021/05/06 01:14:33;;;;;;;;;;;8.30;71.20;;;;;;4290316;33;20025;-70
2021/05/06 01:17:18;;;;;;;;;;;8.30;71.20;;;;;;4290404;33;20068;-70
2021/05/06 01:19:45;;;;;;;;;;;8.30;71.20;;;;;;4289867;33;20018;-70
2021/05/06 01:22:15;;;;;;;;;;;8.40;71.80;;;;;;4290118;33;20002;-70
2021/05/06 01:24:45;;;;;;;;;;;8.30;71.40;;;;;;4276683;33;20010;-70
2021/05/06 01:27:19;;;;;;;;;;;8.40;71.70;;;;;;4290210;33;20347;-70
2021/05/06 01:29:54;;;;;;;;;;;8.30;71.60;;;;;;4290057;33;20050;-70
2021/05/06 01:32:36;;;;;;;;;;;8.40;71.70;;;;;;4289500;33;20019;-70
2021/05/06 01:35:07;;;;;;;;;;;8.40;71.70;;;;;;4289987;33;20018;-70
2021/05/06 01:42:46;;;;;;;;;;;8.40;71.60;;;;;;4289960;33;20018;-70
2021/05/06 01:50:24;;;;;;;;;;;8.40;71.70;;;;;;4289948;33;20022;-70
2021/05/06 02:01:03;;;;;;;;;;;8.50;72.00;;;;;;4289579;33;20021;-70
2021/05/06 02:03:30;;;;;;;;;;;8.50;71.80;;;;;;4289820;33;20029;-70
2021/05/06 02:05:56;;;;;;;;;;;8.50;71.90;;;;;;4289613;33;20014;-70
2021/05/06 02:08:23;;;;;;;;;;;8.50;71.90;;;;;;4289620;33;20019;-70
2021/05/06 02:10:53;;;;;;;;;;;8.40;71.80;;;;;;4289552;33;20017;-70
2021/05/06 02:13:20;;;;;;;;;;;8.40;72.00;;;;;;4276147;33;20050;-70
2021/05/06 02:15:52;;;;;;;;;;;8.40;72.10;;;;;;4276498;33;20018;-70
2021/05/06 02:18:20;;;;;;;;;;;8.40;72.40;;;;;;4289459;33;20018;-70
2021/05/06 02:20:47;;;;;;;;;;;8.40;73.10;;;;;;4288856;33;20374;-70
2021/05/06 02:23:14;;;;;;;;;;;8.40;72.30;;;;;;4276395;33;19998;-70
2021/05/06 02:25:41;;;;;;;;;;;8.30;72.60;;;;;;4288160;33;20010;-70
2021/05/06 02:28:08;;;;;;;;;;;8.30;72.60;;;;;;4289410;33;20430;-70
2021/05/06 02:30:35;;;;;;;;;;;8.30;72.70;;;;;;4289146;33;20010;-69
2021/05/06 02:33:05;;;;;;;;;;;8.20;72.60;;;;;;4289327;33;20014;-69
2021/05/06 02:35:33;;;;;;;;;;;8.30;72.90;;;;;;4289338;33;20050;-70
2021/05/06 02:37:59;;;;;;;;;;;8.20;73.00;;;;;;4289323;33;20014;-70
2021/05/06 02:40:29;;;;;;;;;;;8.30;72.90;;;;;;4288909;33;20025;-70
2021/05/06 02:42:56;;;;;;;;;;;8.30;73.00;;;;;;4289134;33;20434;-70
2021/05/06 02:45:22;;;;;;;;;;;8.30;72.90;;;;;;4289250;33;20017;-70
2021/05/06 02:47:49;;;;;;;;;;;8.20;73.00;;;;;;4289040;33;20040;-70
2021/05/06 02:50:19;;;;;;;;;;;8.20;73.00;;;;;;4288834;33;20002;-70
2021/05/06 03:03:29;;;;;;;;;;;8.00;73.30;;;;;;4288632;33;20014;-70
2021/05/06 03:05:56;;;;;;;;;;;8.00;73.50;;;;;;4288573;33;20025;-70
2021/05/06 03:08:29;;;;;;;;;;;8.00;73.60;;;;;;4288825;33;20392;-69
2021/05/06 03:24:31;;;;;;;;;;;8.00;74.00;;;;;;4288314;33;20006;-70
2021/05/06 03:26:58;;;;;;;;;;;8.00;74.30;;;;;;4288501;33;20438;-70
2021/05/06 03:29:31;;;;;;;;;;;8.00;74.20;;;;;;4275142;33;20014;-70
2021/05/06 03:34:53;;;;;;;;;;;7.90;74.30;;;;;;4288695;33;20392;-69
2021/05/06 03:43:09;;;;;;;;;;;7.90;74.40;;;;;;4288518;33;20020;-70
2021/05/06 04:18:38;;;;;;;;;;;8.00;73.80;;;;;;4288159;33;20018;-70
2021/05/06 04:37:05;;;;;;;;;;;8.10;73.50;;;;;;4288450;33;20020;-69
2021/05/06 04:39:43;;;;;;;;;;;8.10;73.60;;;;;;4286801;33;20010;-69
2021/05/06 04:55:36;;;;;;;;;;;8.00;74.10;;;;;;4290509;33;20010;-69
2021/05/06 05:05:45;;;;;;;;;;;8.00;74.40;;;;;;4290288;33;20447;-70
2021/05/06 05:08:14;;;;;;;;;;;8.00;74.60;;;;;;4290093;33;20069;-69
2021/05/06 05:24:16;;;;;;;;;;;7.90;75.40;;;;;;4290308;33;20068;-69
2021/05/06 05:26:44;;;;;;;;;;;7.80;75.70;;;;;;4290145;33;20018;-69
2021/05/06 05:29:10;;;;;;;;;;;7.90;75.60;;;;;;4276748;33;19999;-69
2021/05/06 05:31:37;;;;;;;;;;;7.80;75.80;;;;;;4290589;33;20439;-69
2021/05/06 05:34:17;;;;;;;;;;;7.80;75.80;;;;;;4289588;33;20015;-69
2021/05/06 05:36:44;;;;;;;;;;;7.80;76.10;;;;;;4290292;33;20017;-69
2021/05/06 05:39:21;;;;;;;;;;;7.80;76.10;;;;;;4290065;33;20025;-70
2021/05/06 05:55:14;;;;;;;;;;;7.80;76.80;;;;;;4289317;33;20409;-69
2021/05/06 05:57:44;;;;;;;;;;;7.80;76.90;;;;;;4289606;33;20017;-69
2021/05/06 06:00:10;;;;;;;;;;;7.80;77.10;;;;;;4289879;33;20003;-69
2021/05/06 06:02:38;;;;;;;;;;;7.80;77.10;;;;;;4289171;33;20053;-69
2021/05/06 06:05:06;;;;;;;;;;;7.80;77.20;;;;;;4289733;33;20011;-69
2021/05/06 06:07:33;;;;;;;;;;;7.80;77.10;;;;;;4289059;33;20010;-69
2021/05/06 06:10:00;;;;;;;;;;;7.80;77.10;;;;;;4289553;33;20014;-69
2021/05/06 06:12:27;;;;;;;;;;;7.80;77.30;;;;;;4289491;33;20015;-69
2021/05/06 06:17:23;;;;;;;;;;;7.80;77.50;;;;;;4290017;33;20009;-69
2021/05/06 06:19:51;;;;;;;;;;;7.90;77.60;;;;;;4289353;33;20002;-69
2021/05/06 06:22:20;;;;;;;;;;;7.80;77.50;;;;;;4288289;33;19998;-69
2021/05/06 06:24:47;;;;;;;;;;;7.90;77.50;;;;;;4288088;33;23765;-69
2021/05/06 06:27:15;;;;;;;;;;;7.90;77.60;;;;;;4289369;33;20006;-69
2021/05/06 06:29:43;;;;;;;;;;;7.90;77.60;;;;;;4289817;33;20013;-70
2021/05/06 06:32:14;;;;;;;;;;;7.90;77.60;;;;;;4289329;33;20020;-69
2021/05/06 06:34:40;;;;;;;;;;;7.90;77.70;;;;;;4289422;33;20014;-69
2021/05/06 06:37:07;;;;;;;;;;;7.90;77.70;;;;;;4275893;33;20006;-69
2021/05/06 06:39:38;;;;;;;;;;;7.90;77.80;;;;;;4287989;33;20044;-69
2021/05/06 06:42:09;;;;;;;;;;;7.90;77.70;;;;;;4276500;33;20023;-69
2021/05/06 06:44:39;;;;;;;;;;;8.00;78.10;;;;;;4288576;33;20018;-69
2021/05/06 06:47:07;;;;;;;;;;;7.90;78.50;;;;;;4288768;33;20025;-69
2021/05/06 06:49:35;;;;;;;;;;;7.90;78.00;;;;;;4276437;33;20442;-69
2021/05/06 06:52:02;;;;;;;;;;;8.00;78.00;;;;;;4288763;33;20018;-69
2021/05/06 06:54:29;;;;;;;;;;;8.00;77.90;;;;;;4288770;33;20151;-70
2021/05/06 06:57:03;;;;;;;;;;;8.00;78.10;;;;;;4288942;33;20541;-69
2021/05/06 06:59:29;;;;;;;;;;;8.00;78.00;;;;;;4288911;33;20062;-69
2021/05/06 07:01:56;;;;;;;;;;;8.00;78.00;;;;;;4287978;33;22999;-69
2021/05/06 07:04:23;;;;;;;;;;;8.00;78.50;;;;;;4288608;33;20069;-69
2021/05/06 07:06:49;;;;;;;;;;;8.00;78.20;;;;;;4275271;33;22816;-69
2021/05/06 07:09:16;;;;;;;;;;;8.10;78.10;;;;;;4287431;33;21216;-70
2021/05/06 07:11:42;;;;;;;;;;;8.10;78.00;;;;;;4288690;33;20059;-69
2021/05/06 07:14:09;;;;;;;;;;;8.10;77.90;;;;;;4288015;33;20061;-69
2021/05/06 07:16:35;;;;;;;;;;;8.10;77.80;;;;;;4288812;33;20020;-69
2021/05/06 07:19:03;;;;;;;;;;;8.20;78.20;;;;;;4288346;33;20057;-69
2021/05/06 07:21:31;;;;;;;;;;;8.10;78.50;;;;;;4287387;33;20029;-69
2021/05/06 07:23:57;;;;;;;;;;;8.10;78.20;;;;;;4288482;33;20014;-69
2021/05/06 07:26:27;;;;;;;;;;;8.20;78.40;;;;;;4274986;33;23317;-69
2021/05/06 07:28:56;;;;;;;;;;;8.20;78.20;;;;;;4288173;33;20010;-69
2021/05/06 07:31:25;;;;;;;;;;;8.20;78.30;;;;;;4288304;33;20014;-69
2021/05/06 07:33:54;;;;;;;;;;;8.20;78.30;;;;;;4288229;33;20010;-69
2021/05/06 07:36:24;;;;;;;;;;;8.30;78.00;;;;;;4288283;33;20006;-69
2021/05/06 07:38:54;;;;;;;;;;;8.30;78.10;;;;;;4288182;33;20515;-69
2021/05/06 07:41:23;;;;;;;;;;;8.30;78.30;;;;;;4288141;33;20017;-69
2021/05/06 07:43:53;;;;;;;;;;;8.30;78.00;;;;;;4287757;33;24211;-69
2021/05/06 07:46:22;;;;;;;;;;;8.30;77.80;;;;;;4288040;33;20014;-69
2021/05/06 07:48:53;;;;;;;;;;;8.30;77.80;;;;;;4288275;33;21537;-69
2021/05/06 07:51:24;;;;;;;;;;;8.40;77.80;;;;;;4288182;33;20014;-69
2021/05/06 07:53:56;;;;;;;;;;;8.40;77.50;;;;;;4288149;33;20021;-69
2021/05/06 07:56:27;;;;;;;;;;;8.40;77.40;;;;;;4288391;33;20015;-69
2021/05/06 07:58:54;;;;;;;;;;;8.50;77.30;;;;;;4288153;33;20017;-69
2021/05/06 08:01:20;;;;;;;;;;;8.50;77.20;;;;;;4287793;33;22871;-69
2021/05/06 08:03:48;;;;;;;;;;;8.50;77.10;;;;;;4286315;33;20014;-69
2021/05/06 08:06:20;;;;;;;;;;;8.50;77.10;;;;;;4288169;33;20011;-69
2021/05/06 08:08:47;;;;;;;;;;;8.50;77.00;;;;;;4288017;33;20051;-69
2021/05/06 08:11:14;;;;;;;;;;;8.50;77.10;;;;;;4287859;33;20045;-69
2021/05/06 08:13:41;;;;;;;;;;;8.60;77.20;;;;;;4274748;33;19998;-69
2021/05/06 08:16:08;;;;;;;;;;;8.60;77.20;;;;;;4287940;33;20021;-69
2021/05/06 08:18:34;;;;;;;;;;;8.60;77.20;;;;;;4277298;33;20890;-69
2021/05/06 08:21:01;;;;;;;;;;;8.60;77.10;;;;;;4292849;33;20418;-69
2021/05/06 08:23:28;;;;;;;;;;;8.60;76.90;;;;;;4279288;33;23659;-69
2021/05/06 08:25:57;;;;;;;;;;;8.70;76.90;;;;;;4292951;33;20389;-69
2021/05/06 08:28:44;;;;;;;;;;;8.70;76.60;;;;;;4293103;33;20365;-69
2021/05/06 08:31:11;;;;;;;;;;;8.80;76.60;;;;;;4279654;33;19999;-69
2021/05/06 08:33:37;;;;;;;;;;;8.80;76.40;;;;;;4279436;33;20005;-69
2021/05/06 08:36:04;;;;;;;;;;;8.80;76.20;;;;;;4292036;33;21107;-69
2021/05/06 08:38:31;;;;;;;;;;;8.80;76.20;;;;;;4292566;33;20029;-69
2021/05/06 08:40:57;;;;;;;;;;;8.80;76.20;;;;;;4292747;33;20002;-69
2021/05/06 08:43:27;;;;;;;;;;;8.80;76.00;;;;;;4279348;33;22386;-69
2021/05/06 08:45:56;;;;;;;;;;;8.80;76.20;;;;;;4292839;33;20109;-69
2021/05/06 08:48:22;;;;;;;;;;;8.80;76.00;;;;;;4292519;33;21496;-69
2021/05/06 08:50:50;;;;;;;;;;;8.90;75.80;;;;;;4292303;33;20775;-69
2021/05/06 08:53:17;;;;;;;;;;;8.90;75.70;;;;;;4292373;33;20006;-69
2021/05/06 08:55:44;;;;;;;;;;;8.90;75.80;;;;;;4292181;33;23398;-69
2021/05/06 08:58:12;;;;;;;;;;;8.90;75.60;;;;;;4292393;33;20011;-69
2021/05/06 09:00:39;;;;;;;;;;;8.90;75.20;;;;;;4291943;33;20087;-69
2021/05/06 09:03:06;;;;;;;;;;;8.90;75.50;;;;;;4292014;33;20022;-69
2021/05/06 09:05:36;;;;;;;;;;;9.00;75.20;;;;;;4292823;33;20053;-69
2021/05/06 09:08:03;;;;;;;;;;;9.00;75.00;;;;;;4291537;33;20417;-69
2021/05/06 09:10:36;;;;;;;;;;;9.00;75.00;;;;;;4292546;33;20447;-69
2021/05/06 09:13:04;;;;;;;;;;;9.10;75.10;;;;;;4292820;33;20010;-69
2021/05/06 09:15:30;;;;;;;;;;;9.10;74.70;;;;;;4292420;33;20010;-69
2021/05/06 09:17:57;;;;;;;;;;;9.10;74.40;;;;;;4292006;33;21416;-69
2021/05/06 09:20:25;;;;;;;;;;;9.20;74.40;;;;;;4292311;33;20007;-69
2021/05/06 09:22:56;;;;;;;;;;;9.20;74.20;;;;;;4292293;33;20015;-69
2021/05/06 09:25:23;;;;;;;;;;;9.20;73.80;;;;;;4291809;33;20039;-69
2021/05/06 09:28:09;;;;;;;;;;;9.20;74.20;;;;;;4292463;33;20077;-69
2021/05/06 09:30:35;;;;;;;;;;;9.20;74.30;;;;;;4276301;33;20361;-69
2021/05/06 09:33:04;;;;;;;;;;;9.20;73.70;;;;;;4288887;33;20644;-69
2021/05/06 09:35:39;;;;;;;;;;;9.30;73.40;;;;;;4289748;33;20018;-70
2021/05/06 09:38:10;;;;;;;;;;;9.30;73.60;;;;;;4289984;33;20015;-69
2021/05/06 09:40:46;;;;;;;;;;;9.30;72.90;;;;;;4289944;33;20006;-68
2021/05/06 09:43:26;;;;;;;;;;;9.30;72.90;;;;;;4289760;33;20125;-69
2021/05/06 09:45:54;;;;;;;;;;;9.30;72.50;;;;;;4289951;33;20015;-70
2021/05/06 09:48:21;;;;;;;;;;;9.30;72.90;;;;;;4289250;33;20037;-69
2021/05/06 09:50:50;;;;;;;;;;;9.30;72.70;;;;;;4289811;33;20022;-69
2021/05/06 09:53:18;;;;;;;;;;;9.30;72.80;;;;;;4289729;33;20011;-69
2021/05/06 09:55:46;;;;;;;;;;;9.30;72.90;;;;;;4289678;33;20007;-69
2021/05/06 09:58:17;;;;;;;;;;;9.30;72.10;;;;;;4289518;33;20045;-69
2021/05/06 10:00:44;;;;;;;;;;;9.40;72.20;;;;;;4289556;33;20003;-69
2021/05/06 10:03:13;;;;;;;;;;;9.40;72.40;;;;;;4289635;33;20074;-69
2021/05/06 10:05:41;;;;;;;;;;;9.40;72.00;;;;;;4289880;33;20058;-69
2021/05/06 10:08:08;;;;;;;;;;;9.40;72.10;;;;;;4276402;33;20014;-69
2021/05/06 10:10:36;;;;;;;;;;;9.50;72.00;;;;;;4289409;33;22126;-69
2021/05/06 10:13:04;;;;;;;;;;;9.50;72.20;;;;;;4289412;33;20011;-69
2021/05/06 10:15:31;;;;;;;;;;;9.50;72.30;;;;;;4289403;33;20109;-69
2021/05/06 10:17:58;;;;;;;;;;;9.50;72.10;;;;;;4289259;33;20010;-69
2021/05/06 10:20:26;;;;;;;;;;;9.50;72.10;;;;;;4288936;33;21244;-69
2021/05/06 10:22:55;;;;;;;;;;;9.60;72.10;;;;;;4289017;33;20022;-69
2021/05/06 10:25:23;;;;;;;;;;;9.60;72.10;;;;;;4289266;33;20017;-69
2021/05/06 10:27:50;;;;;;;;;;;9.60;72.10;;;;;;4289234;33;20400;-69
2021/05/06 10:30:17;;;;;;;;;;;9.60;71.80;;;;;;4289264;33;20017;-69
2021/05/06 10:32:45;;;;;;;;;;;9.60;71.70;;;;;;4275970;33;20025;-69
2021/05/06 10:35:13;;;;;;;;;;;9.60;71.70;;;;;;4288951;33;20006;-69
2021/05/06 10:37:42;;;;;;;;;;;9.60;71.60;;;;;;4289071;33;20490;-69
2021/05/06 10:40:21;;;;;;;;;;;9.60;71.60;;;;;;4289032;33;20015;-69
2021/05/06 10:42:49;;;;;;;;;;;9.70;71.70;;;;;;4289129;33;20070;-69
2021/05/06 10:45:16;;;;;;;;;;;9.70;71.60;;;;;;4288771;33;20011;-69
2021/05/06 10:47:45;;;;;;;;;;;9.70;71.60;;;;;;4288826;33;20018;-69
2021/05/06 10:50:14;;;;;;;;;;;9.70;71.50;;;;;;4288798;33;20010;-69
2021/05/06 10:52:42;;;;;;;;;;;9.60;71.20;;;;;;4288922;33;20066;-69
2021/05/06 10:55:10;;;;;;;;;;;9.60;71.50;;;;;;4288717;33;20050;-69
2021/05/06 10:57:40;;;;;;;;;;;9.70;71.70;;;;;;4288882;33;20819;-69
2021/05/06 11:00:16;;;;;;;;;;;9.70;71.60;;;;;;4288492;33;20042;-69
2021/05/06 11:02:54;;;;;;;;;;;9.70;71.40;;;;;;4288215;33;20325;-69
2021/05/06 11:05:22;;;;;;;;;;;9.70;71.30;;;;;;4288519;33;20768;-70
2021/05/06 11:08:04;;;;;;;;;;;9.70;71.10;;;;;;4288504;33;21004;-70
2021/05/06 11:10:53;;;;;;;;;;;9.70;71.10;;;;;;4287591;33;21517;-69
2021/05/06 11:13:23;;;;;;;;;;;9.70;71.10;;;;;;4283668;33;20002;-69
2021/05/06 11:15:50;;;;;;;;;;;9.80;71.10;;;;;;4288964;33;20074;-70
2021/05/06 11:18:36;;;;;;;;;;;9.80;71.00;;;;;;4288529;33;20006;-69
2021/05/06 11:21:02;;;;;;;;;;;9.70;70.90;;;;;;4288666;33;20010;-69
2021/05/06 11:23:30;;;;;;;;;;;9.80;70.90;;;;;;4288632;33;20019;-69
2021/05/06 11:26:07;;;;;;;;;;;9.80;70.90;;;;;;4288504;33;20046;-69
2021/05/06 11:28:33;;;;;;;;;;;9.80;70.80;;;;;;4288440;33;20021;-69
2021/05/06 11:31:00;;;;;;;;;;;9.70;70.60;;;;;;4287982;33;20061;-69
2021/05/06 11:33:28;;;;;;;;;;;9.80;70.70;;;;;;4287935;33;21699;-69
2021/05/06 11:35:58;;;;;;;;;;;9.80;70.60;;;;;;4288007;33;20306;-69
2021/05/06 11:38:36;;;;;;;;;;;9.80;70.60;;;;;;4288285;33;20053;-69
2021/05/06 11:41:04;;;;;;;;;;;9.80;70.80;;;;;;4287086;33;20048;-70
2021/05/06 11:43:31;;;;;;;;;;;9.80;70.70;;;;;;4288494;33;20414;-69
2021/05/06 11:46:04;;;;;;;;;;;9.80;70.60;;;;;;4286930;33;20006;-69
2021/05/06 11:48:37;;;;;;;;;;;9.80;70.80;;;;;;4288512;33;20505;-69
2021/05/06 11:51:04;;;;;;;;;;;9.80;71.00;;;;;;4288047;33;20029;-69
2021/05/06 11:53:31;;;;;;;;;;;9.80;71.80;;;;;;4287459;33;23139;-70
2021/05/06 11:55:58;;;;;;;;;;;9.70;73.60;;;;;;4274747;33;20053;-69
2021/05/06 11:58:26;;;;;;;;;;;9.70;73.40;;;;;;4287057;33;20011;-69
2021/05/06 12:00:53;;;;;;;;;;;9.70;73.20;;;;;;4275241;33;20029;-70
2021/05/06 12:03:19;;;;;;;;;;;9.70;73.30;;;;;;4287804;33;21556;-69
2021/05/06 12:06:00;;;;;;;;;;;9.70;73.30;;;;;;4274933;33;20011;-70
2021/05/06 12:08:28;;;;;;;;;;;9.70;73.60;;;;;;4288181;33;20074;-70
2021/05/06 12:10:55;;;;;;;;;;;9.70;73.60;;;;;;4287838;33;20014;-69
2021/05/06 12:13:29;;;;;;;;;;;9.70;73.80;;;;;;4287493;33;20450;-69
2021/05/06 12:16:28;;;;;;;;;;;9.60;73.60;;;;;;4288185;33;20016;-70
2021/05/06 12:19:05;;;;;;;;;;;9.70;73.50;;;;;;4271182;33;20050;-70
2021/05/06 12:21:32;;;;;;;;;;;9.70;73.30;;;;;;4274446;33;20863;-69
2021/05/06 12:23:58;;;;;;;;;;;9.80;73.30;;;;;;4286977;33;20023;-69
2021/05/06 12:26:26;;;;;;;;;;;9.80;73.00;;;;;;4274559;33;20014;-69
2021/05/06 12:28:52;;;;;;;;;;;9.80;72.90;;;;;;4287909;33;20010;-69
2021/05/06 12:31:19;;;;;;;;;;;9.80;72.80;;;;;;4287357;33;20113;-70
2021/05/06 12:33:46;;;;;;;;;;;9.90;72.80;;;;;;4287843;33;21715;-69
2021/05/06 12:36:17;;;;;;;;;;;9.90;72.70;;;;;;4287782;33;20042;-69
2021/05/06 12:38:44;;;;;;;;;;;9.90;72.70;;;;;;4287526;33;20050;-69
2021/05/06 12:41:12;;;;;;;;;;;9.90;73.00;;;;;;4262957;33;20058;-69
2021/05/06 12:43:45;;;;;;;;;;;9.90;73.40;;;;;;4287583;33;19998;-70
2021/05/06 12:46:12;;;;;;;;;;;9.90;73.30;;;;;;4287255;33;20022;-69
2021/05/06 12:48:42;;;;;;;;;;;9.90;73.40;;;;;;4287658;33;20051;-69
2021/05/06 12:51:11;;;;;;;;;;;9.90;73.40;;;;;;4286781;33;20006;-69
2021/05/06 12:53:56;;;;;;;;;;;9.90;73.50;;;;;;4287462;33;20002;-69
2021/05/06 12:56:30;;;;;;;;;;;9.80;73.60;;;;;;4288168;33;20045;-70
2021/05/06 12:58:56;;;;;;;;;;;9.90;73.70;;;;;;4287706;33;20017;-69
2021/05/06 13:01:31;;;;;;;;;;;9.90;73.80;;;;;;4287009;33;21970;-70
2021/05/06 13:04:01;;;;;;;;;;;9.90;73.80;;;;;;4275217;33;20003;-69
2021/05/06 13:06:32;;;;;;;;;;;9.90;73.80;;;;;;4277476;33;20018;-70
2021/05/06 13:08:59;;;;;;;;;;;9.90;73.80;;;;;;4277346;33;20010;-70
2021/05/06 13:11:26;;;;;;;;;;;9.80;73.70;;;;;;4290531;33;20447;-69
2021/05/06 13:13:54;;;;;;;;;;;9.90;73.80;;;;;;4276793;33;21749;-69
2021/05/06 13:16:40;;;;;;;;;;;9.90;73.90;;;;;;4289994;33;20058;-70
2021/05/06 13:19:11;;;;;;;;;;;9.90;74.10;;;;;;4290423;33;20025;-70
2021/05/06 13:21:45;;;;;;;;;;;9.90;74.10;;;;;;4290019;33;20991;-70
2021/05/06 13:24:12;;;;;;;;;;;9.90;74.10;;;;;;4290437;33;20015;-70
2021/05/06 13:26:40;;;;;;;;;;;9.90;74.30;;;;;;4289668;33;23795;-70
2021/05/06 13:29:13;;;;;;;;;;;9.90;74.30;;;;;;4290003;33;20842;-70
2021/05/06 13:31:41;;;;;;;;;;;9.90;74.50;;;;;;4277213;33;20014;-70
2021/05/06 13:34:14;;;;;;;;;;;10.00;74.70;;;;;;4289834;33;21153;-70
2021/05/06 13:36:43;;;;;;;;;;;9.90;74.50;;;;;;4276632;33;22158;-70
2021/05/06 13:39:10;;;;;;;;;;;10.00;74.30;;;;;;4289743;33;20006;-70
2021/05/06 13:41:47;;;;;;;;;;;10.00;74.30;;;;;;4289936;33;20007;-69
2021/05/06 13:44:15;;;;;;;;;;;10.00;74.30;;;;;;4289686;33;24775;-70
2021/05/06 13:46:45;;;;;;;;;;;10.00;74.40;;;;;;4289709;33;20413;-70
2021/05/06 13:49:12;;;;;;;;;;;10.00;74.40;;;;;;4289416;33;20830;-70
2021/05/06 13:51:39;;;;;;;;;;;10.00;74.40;;;;;;4289494;33;20010;-70
2021/05/06 13:54:05;;;;;;;;;;;10.00;74.40;;;;;;4289876;33;20022;-70
2021/05/06 13:56:32;;;;;;;;;;;10.00;74.50;;;;;;4289613;33;20430;-70
2021/05/06 13:58:58;;;;;;;;;;;10.00;74.60;;;;;;4288553;33;20314;-70
2021/05/06 14:01:26;;;;;;;;;;;10.00;74.60;;;;;;4289517;33;20022;-70
2021/05/06 14:03:53;;;;;;;;;;;10.00;74.70;;;;;;4289512;33;21185;-70
2021/05/06 14:06:20;;;;;;;;;;;10.00;75.00;;;;;;4289431;33;20014;-70
2021/05/06 14:08:46;;;;;;;;;;;10.00;75.00;;;;;;4289454;33;20404;-70
2021/05/06 14:11:13;;;;;;;;;;;10.00;75.00;;;;;;4289495;33;20374;-70
2021/05/06 14:14:00;;;;;;;;;;;10.00;75.10;;;;;;4289799;33;20093;-70
2021/05/06 14:16:26;;;;;;;;;;;10.00;75.40;;;;;;4288515;33;20011;-70
2021/05/06 14:18:54;;;;;;;;;;;10.00;75.50;;;;;;4288976;33;22901;-70
2021/05/06 14:21:23;;;;;;;;;;;10.00;75.70;;;;;;4289308;33;20443;-70
2021/05/06 14:23:50;;;;;;;;;;;10.00;75.70;;;;;;4289448;33;20017;-70
2021/05/06 14:26:18;;;;;;;;;;;10.00;75.80;;;;;;4289172;33;20283;-70
2021/05/06 14:28:45;;;;;;;;;;;10.00;75.80;;;;;;4289318;33;20006;-70
2021/05/06 14:31:12;;;;;;;;;;;10.00;75.80;;;;;;4289261;33;20091;-70
2021/05/06 14:33:39;;;;;;;;;;;10.00;75.70;;;;;;4289685;33;20003;-70
2021/05/06 14:36:09;;;;;;;;;;;10.00;75.80;;;;;;4289159;33;20044;-70
2021/05/06 14:38:36;;;;;;;;;;;10.00;75.90;;;;;;4289152;33;20013;-70
2021/05/06 14:41:03;;;;;;;;;;;10.00;75.90;;;;;;4288921;33;20868;-70
2021/05/06 14:43:30;;;;;;;;;;;10.00;76.20;;;;;;4288570;33;20042;-70
2021/05/06 14:45:57;;;;;;;;;;;10.00;76.10;;;;;;4288888;33;20310;-70
2021/05/06 14:48:24;;;;;;;;;;;10.00;76.10;;;;;;4288852;33;20025;-70
2021/05/06 14:50:50;;;;;;;;;;;10.00;76.30;;;;;;4289008;33;20078;-70
2021/05/06 14:53:17;;;;;;;;;;;10.00;76.30;;;;;;4275707;33;20435;-70
2021/05/06 14:55:44;;;;;;;;;;;10.00;76.20;;;;;;4288500;33;20045;-70
2021/05/06 14:58:10;;;;;;;;;;;10.00;76.40;;;;;;4288438;33;20061;-70
2021/05/06 15:00:37;;;;;;;;;;;10.10;76.50;;;;;;4287481;33;20053;-70
2021/05/06 15:03:07;;;;;;;;;;;10.00;76.50;;;;;;4288505;33;20029;-70
2021/05/06 15:05:34;;;;;;;;;;;10.10;76.70;;;;;;4275654;33;20368;-70
2021/05/06 15:08:03;;;;;;;;;;;10.10;76.70;;;;;;4275359;33;23603;-70
2021/05/06 15:10:33;;;;;;;;;;;10.10;76.80;;;;;;4275543;33;20013;-70
2021/05/06 15:12:59;;;;;;;;;;;10.10;76.80;;;;;;4275156;33;20385;-70
2021/05/06 15:15:26;;;;;;;;;;;10.10;76.90;;;;;;4288256;33;20430;-70
2021/05/06 15:17:56;;;;;;;;;;;10.00;77.00;;;;;;4288583;33;19998;-70
2021/05/06 15:20:22;;;;;;;;;;;10.00;76.80;;;;;;4287843;33;20022;-71
2021/05/06 15:22:50;;;;;;;;;;;10.00;77.10;;;;;;4288386;33;20057;-70
2021/05/06 15:25:20;;;;;;;;;;;10.00;77.00;;;;;;4288365;33;20014;-70
2021/05/06 15:27:46;;;;;;;;;;;10.00;77.00;;;;;;4288115;33;20016;-70
2021/05/06 15:30:15;;;;;;;;;;;10.00;77.10;;;;;;4288358;33;20018;-70
2021/05/06 15:32:41;;;;;;;;;;;10.00;77.10;;;;;;4287240;33;20076;-70
2021/05/06 15:35:08;;;;;;;;;;;10.00;77.60;;;;;;4287951;33;20054;-70
2021/05/06 15:37:36;;;;;;;;;;;10.00;77.40;;;;;;4287850;33;20049;-70
2021/05/06 15:40:03;;;;;;;;;;;10.00;77.50;;;;;;4287937;33;20006;-70
2021/05/06 15:42:30;;;;;;;;;;;10.00;77.90;;;;;;4287973;33;21273;-70
2021/05/06 15:44:57;;;;;;;;;;;10.10;77.30;;;;;;4288201;33;20015;-70
2021/05/06 15:47:23;;;;;;;;;;;10.10;77.50;;;;;;4288011;33;20006;-70
2021/05/06 15:49:52;;;;;;;;;;;10.00;77.60;;;;;;4288031;33;20006;-70
2021/05/06 15:52:19;;;;;;;;;;;10.00;77.70;;;;;;4288225;33;20014;-70
2021/05/06 15:54:45;;;;;;;;;;;10.00;77.70;;;;;;4287803;33;20014;-70
2021/05/06 15:57:12;;;;;;;;;;;10.00;77.90;;;;;;4287880;33;20054;-70
2021/05/06 15:59:39;;;;;;;;;;;10.00;77.80;;;;;;4288121;33;20369;-70
2021/05/06 16:02:27;;;;;;;;;;;10.10;78.00;;;;;;4288160;33;20022;-70
2021/05/06 16:04:53;;;;;;;;;;;10.00;78.00;;;;;;4288502;33;20344;-69
2021/05/06 16:07:20;;;;;;;;;;;10.10;78.00;;;;;;4288637;33;20061;-70
2021/05/06 16:09:48;;;;;;;;;;;10.10;78.00;;;;;;4287862;33;25136;-70
2021/05/06 16:12:15;;;;;;;;;;;10.10;77.80;;;;;;4288360;33;20070;-70
2021/05/06 16:14:41;;;;;;;;;;;10.10;77.80;;;;;;4288339;33;20117;-69
2021/05/06 16:17:10;;;;;;;;;;;10.00;77.90;;;;;;4288309;33;20012;-70
2021/05/06 16:19:37;;;;;;;;;;;10.10;78.20;;;;;;4288080;33;20002;-70
2021/05/06 16:22:04;;;;;;;;;;;10.10;78.00;;;;;;4287724;33;20860;-70
2021/05/06 16:24:30;;;;;;;;;;;10.10;78.20;;;;;;4288301;33;20006;-69
2021/05/06 16:26:57;;;;;;;;;;;10.10;78.20;;;;;;4287595;33;20046;-70
2021/05/06 16:29:24;;;;;;;;;;;10.10;78.30;;;;;;4287668;33;20010;-70
2021/05/06 16:31:50;;;;;;;;;;;10.10;78.10;;;;;;4288316;33;20010;-70
2021/05/06 16:34:22;;;;;;;;;;;10.10;78.20;;;;;;4287372;33;20053;-70
2021/05/06 16:37:00;;;;;;;;;;;10.10;78.20;;;;;;4275151;33;20015;-70
2021/05/06 16:42:02;;;;;;;;;;;10.10;78.40;;;;;;4277363;33;23313;-70
2021/05/06 16:44:31;;;;;;;;;;;10.10;78.30;;;;;;4291100;33;20468;-70
2021/05/06 16:47:02;;;;;;;;;;;10.10;78.30;;;;;;4290270;33;20046;-70
2021/05/06 16:49:29;;;;;;;;;;;10.10;78.40;;;;;;4290215;33;22559;-69
2021/05/06 16:51:56;;;;;;;;;;;10.10;78.40;;;;;;4289133;33;26086;-69
2021/05/06 16:54:23;;;;;;;;;;;10.10;78.50;;;;;;4290229;33;23035;-70
2021/05/06 16:56:53;;;;;;;;;;;10.10;78.60;;;;;;4290451;33;20099;-70
2021/05/06 16:59:21;;;;;;;;;;;10.10;78.60;;;;;;4290579;33;20722;-70
2021/05/06 17:01:48;;;;;;;;;;;10.10;78.60;;;;;;4290138;33;20020;-70
2021/05/06 17:04:15;;;;;;;;;;;10.10;78.80;;;;;;4289382;33;20049;-69
2021/05/06 17:06:41;;;;;;;;;;;10.10;78.60;;;;;;4290283;33;21364;-69
2021/05/06 17:09:08;;;;;;;;;;;10.10;78.70;;;;;;4290284;33;20018;-70
2021/05/06 17:11:36;;;;;;;;;;;10.10;78.80;;;;;;4289715;33;22054;-70
2021/05/06 17:14:03;;;;;;;;;;;10.10;78.90;;;;;;4288754;33;22190;-69
2021/05/06 17:16:30;;;;;;;;;;;10.10;79.00;;;;;;4277225;33;20053;-69
2021/05/06 17:18:57;;;;;;;;;;;10.10;78.80;;;;;;4290296;33;20010;-70
2021/05/06 17:21:24;;;;;;;;;;;10.10;78.80;;;;;;4290217;33;20010;-69
2021/05/06 17:23:52;;;;;;;;;;;10.10;79.00;;;;;;4290032;33;20046;-70
2021/05/06 17:26:19;;;;;;;;;;;10.10;79.20;;;;;;4289733;33;20392;-69
2021/05/06 17:28:46;;;;;;;;;;;10.10;79.00;;;;;;4290090;33;20025;-69
2021/05/06 17:31:13;;;;;;;;;;;10.10;79.10;;;;;;4290207;33;20002;-69
2021/05/06 17:33:39;;;;;;;;;;;10.00;79.10;;;;;;4276765;33;19999;-69
2021/05/06 17:36:07;;;;;;;;;;;10.10;79.20;;;;;;4290255;33;20385;-69
2021/05/06 17:38:34;;;;;;;;;;;10.10;79.50;;;;;;4289928;33;20014;-70
2021/05/06 17:41:01;;;;;;;;;;;10.10;79.50;;;;;;4289537;33;20002;-69
2021/05/06 17:43:29;;;;;;;;;;;10.10;79.60;;;;;;4288679;33;20010;-69
2021/05/06 17:45:59;;;;;;;;;;;10.10;79.50;;;;;;4288608;33;20002;-70
2021/05/06 17:48:26;;;;;;;;;;;10.10;79.40;;;;;;4276559;33;20377;-69
2021/05/06 17:50:53;;;;;;;;;;;10.00;79.40;;;;;;4275712;33;20093;-69
2021/05/06 17:53:22;;;;;;;;;;;10.00;79.70;;;;;;4289288;33;20073;-70
2021/05/06 17:55:49;;;;;;;;;;;10.10;79.60;;;;;;4276494;33;20011;-69